Time;durP1;ratioP1;P1;durP2;ratioP2;P2;SDS_P1;SDS_P2;PMS_P1;PMS_P2;Temp;Humidity;BMP_temperature;BMP_pressure;BME280_temperature;BME280_humidity;BME280_pressure;Samples;Min_cycle;Max_cycle;Signal;HPM_P1;HPM_P2
2023/05/13 00:01:12;;;;;;;16.08;7.53;;;;;;;11.15;57.54;99672.81;7343737;19;20019;-76
2023/05/13 00:03:37;;;;;;;14.82;7.68;;;;;;;11.16;56.90;99679.00;7342833;19;20015;-70
2023/05/13 00:06:02;;;;;;;12.80;7.30;;;;;;;11.16;57.25;99676.34;7344037;19;20025;-70
2023/05/13 00:08:26;;;;;;;15.07;7.43;;;;;;;11.11;54.43;99673.16;7348052;19;20094;-73
2023/05/13 00:10:51;;;;;;;13.30;7.03;;;;;;;11.09;55.82;99678.59;7353359;19;20015;-73
2023/05/13 00:13:17;;;;;;;13.25;8.10;;;;;;;11.06;56.05;99684.13;7346261;19;20018;-72
2023/05/13 00:15:42;;;;;;;19.15;6.32;;;;;;;11.03;55.98;99680.88;7348295;19;20054;-70
2023/05/13 00:18:06;;;;;;;15.98;6.95;;;;;;;11.00;56.65;99681.94;7346140;19;20482;-73
2023/05/13 00:20:31;;;;;;;18.25;7.05;;;;;;;10.95;56.51;99678.72;7348259;19;20470;-72
2023/05/13 00:22:56;;;;;;;15.77;6.43;;;;;;;10.92;56.52;99681.66;7350380;19;20021;-70
2023/05/13 00:25:20;;;;;;;17.13;6.88;;;;;;;10.88;56.91;99677.47;7349911;19;20049;-67
2023/05/13 00:27:45;;;;;;;14.05;7.00;;;;;;;10.85;55.48;99696.38;7347593;19;20131;-70
2023/05/13 00:30:10;;;;;;;14.95;7.07;;;;;;;10.82;56.35;99693.94;7348194;19;20431;-74
2023/05/13 00:32:35;;;;;;;11.85;7.03;;;;;;;10.83;57.10;99695.66;7354786;19;20026;-72
2023/05/13 00:34:59;;;;;;;16.33;7.28;;;;;;;10.78;56.45;99697.78;7355300;19;20674;-75
2023/05/13 00:37:24;;;;;;;19.48;8.57;;;;;;;10.73;56.61;99699.91;7347698;19;20023;-66
2023/05/13 00:39:49;;;;;;;18.05;7.13;;;;;;;10.70;57.55;99692.16;7348816;19;20019;-68
2023/05/13 00:42:14;;;;;;;15.73;6.70;;;;;;;10.64;57.72;99705.91;7343637;19;20417;-72
2023/05/13 00:44:39;;;;;;;11.50;7.65;;;;;;;10.64;57.78;99696.09;7349371;19;20018;-70
2023/05/13 00:47:06;;;;;;;19.33;7.72;;;;;;;10.60;58.16;99688.44;7346072;19;20049;-68
2023/05/13 00:49:33;;;;;;;20.30;7.50;;;;;;;10.58;58.08;99701.88;7346855;19;20014;-72
2023/05/13 00:51:59;;;;;;;17.23;6.80;;;;;;;10.56;57.85;99703.78;7346486;19;20078;-73
2023/05/13 00:54:25;;;;;;;10.70;6.53;;;;;;;10.58;57.86;99698.34;7346827;19;20026;-71
2023/05/13 00:56:53;;;;;;;16.05;7.57;;;;;;;10.54;57.50;99701.22;7347840;19;20018;-73
2023/05/13 00:59:18;;;;;;;16.58;7.80;;;;;;;10.54;58.13;99697.69;7353798;19;20014;-72
2023/05/13 01:02:04;;;;;;;16.58;7.32;;;;;;;10.55;57.82;99700.25;7353566;19;20034;-73
2023/05/13 01:07:54;;;;;;;13.43;6.82;;;;;;;10.52;58.73;99712.94;7350049;19;20023;-72
2023/05/13 01:10:27;;;;;;;16.33;8.02;;;;;;;10.45;58.41;99701.03;7357811;19;20025;-71
2023/05/13 01:12:59;;;;;;;15.23;7.10;;;;;;;10.41;58.72;99696.84;7352057;19;20377;-72
2023/05/13 01:15:26;;;;;;;17.50;7.47;;;;;;;10.36;59.61;99702.53;7349402;19;20015;-71
2023/05/13 01:18:00;;;;;;;9.95;6.50;;;;;;;10.34;59.98;99709.75;7345700;19;20360;-77
2023/05/13 01:20:27;;;;;;;18.73;6.90;;;;;;;10.35;59.93;99710.63;7342435;19;20006;-78
2023/05/13 01:22:52;;;;;;;11.75;6.50;;;;;;;10.31;59.86;99706.44;7342871;19;20039;-67
2023/05/13 01:25:17;;;;;;;15.13;7.38;;;;;;;10.27;59.71;99708.47;7342167;19;20006;-68
2023/05/13 01:27:42;;;;;;;11.68;6.78;;;;;;;10.27;59.85;99707.63;7348165;19;20041;-69
2023/05/13 01:30:10;;;;;;;12.45;7.00;;;;;;;10.26;59.95;99712.13;7349410;19;20011;-71
2023/05/13 01:32:36;;;;;;;13.65;7.15;;;;;;;10.23;59.26;99712.31;7347009;19;20037;-77
2023/05/13 01:35:02;;;;;;;12.38;7.88;;;;;;;10.23;58.61;99719.47;7346779;19;20073;-68
2023/05/13 01:37:29;;;;;;;14.98;7.43;;;;;;;10.23;59.68;99717.66;7344606;19;20027;-67
2023/05/13 01:39:55;;;;;;;10.95;6.65;;;;;;;10.20;58.87;99715.19;7349163;19;20024;-64
2023/05/13 01:42:22;;;;;;;12.32;7.03;;;;;;;10.25;59.34;99728.19;7345246;19;20018;-67
2023/05/13 01:44:50;;;;;;;17.83;6.95;;;;;;;10.25;58.58;99718.41;7345433;19;20834;-67
2023/05/13 01:47:15;;;;;;;14.77;6.38;;;;;;;10.23;57.80;99725.63;7347330;19;20389;-69
2023/05/13 01:49:40;;;;;;;11.85;7.15;;;;;;;10.24;58.40;99722.03;7345141;19;20027;-67
2023/05/13 01:52:05;;;;;;;9.90;6.28;;;;;;;10.25;58.26;99728.19;7343966;19;20017;-66
2023/05/13 01:54:30;;;;;;;21.80;8.85;;;;;;;10.27;57.71;99740.44;7349619;19;20014;-70
2023/05/13 01:57:01;;;;;;;15.45;7.22;;;;;;;10.32;57.84;99742.78;7343077;19;20022;-73
2023/05/13 01:59:25;;;;;;;19.83;8.90;;;;;;;10.35;57.04;99743.44;7347141;19;20015;-71
2023/05/13 02:01:51;;;;;;;19.00;7.97;;;;;;;10.41;57.55;99736.81;7351488;19;20073;-65
2023/05/13 02:04:16;;;;;;;14.73;7.15;;;;;;;10.45;57.90;99744.50;7345777;19;20128;-68
2023/05/13 02:06:41;;;;;;;18.92;9.35;;;;;;;10.51;57.28;99741.41;7349965;19;20103;-65
2023/05/13 02:09:06;;;;;;;15.80;7.60;;;;;;;10.55;57.25;99745.56;7352554;19;20026;-66
2023/05/13 02:11:31;;;;;;;17.73;8.23;;;;;;;10.63;56.91;99746.84;7350195;19;20035;-65
2023/05/13 02:13:56;;;;;;;23.70;8.98;;;;;;;10.70;56.99;99746.31;7349752;19;20356;-66
2023/05/13 02:16:20;;;;;;;27.23;10.70;;;;;;;10.80;57.00;99751.84;7354236;19;20341;-66
2023/05/13 02:18:45;;;;;;;17.25;9.32;;;;;;;10.89;56.70;99743.19;7350224;19;20018;-66
2023/05/13 02:21:11;;;;;;;18.98;9.82;;;;;;;10.97;56.63;99747.97;7349620;19;20018;-65
2023/05/13 02:23:37;;;;;;;28.30;10.27;;;;;;;11.08;56.41;99748.06;7344334;19;20018;-66
2023/05/13 02:26:02;;;;;;;26.45;10.05;;;;;;;11.18;55.87;99752.63;7346361;19;20098;-64
2023/05/13 02:28:27;;;;;;;16.30;8.52;;;;;;;11.27;55.53;99748.47;7349430;19;20022;-66
2023/05/13 02:30:52;;;;;;;23.80;10.20;;;;;;;11.34;54.82;99748.84;7350871;19;20353;-66
2023/05/13 02:33:17;;;;;;;21.42;8.13;;;;;;;11.43;54.03;99753.53;7345358;19;20024;-66
2023/05/13 02:35:42;;;;;;;17.08;7.57;;;;;;;11.52;53.67;99750.16;7346580;19;20022;-71
2023/05/13 02:38:10;;;;;;;24.50;8.35;;;;;;;11.60;53.39;99748.66;7340560;19;20462;-69
2023/05/13 02:40:35;;;;;;;18.90;7.10;;;;;;;11.68;53.83;99748.06;7346014;19;20107;-66
2023/05/13 02:43:01;;;;;;;18.60;7.38;;;;;;;11.84;53.45;99753.19;7341192;19;20047;-62
2023/05/13 02:45:40;;;;;;;12.80;6.72;;;;;;;11.94;52.68;99749.69;7347762;19;20022;-65
2023/05/13 02:48:05;;;;;;;16.25;7.38;;;;;;;12.08;52.06;99750.44;7343658;19;20090;-64
2023/05/13 02:50:30;;;;;;;17.15;8.00;;;;;;;12.19;52.13;99745.16;7343500;19;20023;-66
2023/05/13 02:52:56;;;;;;;15.48;6.53;;;;;;;12.30;51.44;99750.53;7345090;19;20026;-66
2023/05/13 02:55:22;;;;;;;14.68;6.88;;;;;;;12.44;50.78;99754.81;7344306;19;20014;-63
2023/05/13 02:57:46;;;;;;;10.73;7.38;;;;;;;12.54;51.27;99753.97;7341736;19;20015;-63
2023/05/13 03:00:12;;;;;;;12.02;7.22;;;;;;;12.68;51.75;99761.78;7344110;19;20011;-62
2023/05/13 03:02:37;;;;;;;11.85;7.00;;;;;;;12.80;51.10;99765.31;7343982;19;20019;-74
2023/05/13 03:05:02;;;;;;;10.85;6.93;;;;;;;12.91;51.41;99761.78;7342051;19;20021;-74
2023/05/13 03:07:29;;;;;;;15.75;6.88;;;;;;;13.01;50.44;99768.09;7345991;19;20010;-70
2023/05/13 03:09:56;;;;;;;12.90;6.97;;;;;;;13.17;49.20;99762.44;7345623;19;20014;-69
2023/05/13 03:12:20;;;;;;;11.07;6.93;;;;;;;13.25;48.47;99762.66;7345952;19;20015;-71
2023/05/13 03:14:46;;;;;;;13.57;6.97;;;;;;;13.31;49.69;99765.72;7347158;19;20014;-70
2023/05/13 03:17:12;;;;;;;8.77;6.50;;;;;;;13.45;49.26;99762.75;7347540;19;20375;-71
2023/05/13 03:19:37;;;;;;;11.43;6.63;;;;;;;13.59;48.45;99758.94;7345013;19;20032;-71
2023/05/13 03:22:03;;;;;;;18.27;6.90;;;;;;;13.71;47.67;99757.94;7347701;19;20580;-71
2023/05/13 03:24:28;;;;;;;13.82;7.68;;;;;;;13.81;47.38;99756.19;7348093;19;20130;-71
2023/05/13 03:26:53;;;;;;;17.02;6.38;;;;;;;13.93;48.16;99757.00;7347435;19;20050;-70
2023/05/13 03:29:18;;;;;;;14.50;7.32;;;;;;;14.07;47.44;99759.38;7346258;19;20480;-75
2023/05/13 03:31:43;;;;;;;14.27;6.68;;;;;;;14.16;46.81;99761.28;7344191;19;20029;-75
2023/05/13 03:34:07;;;;;;;14.65;7.43;;;;;;;14.25;46.68;99756.97;7343764;19;20023;-75
2023/05/13 03:36:32;;;;;;;16.23;7.85;;;;;;;14.42;46.54;99758.25;7344607;19;20037;-74
2023/05/13 03:38:57;;;;;;;8.85;6.10;;;;;;;14.52;46.07;99762.69;7347192;19;20028;-70
2023/05/13 03:41:21;;;;;;;15.75;7.15;;;;;;;14.63;45.28;99763.59;7344753;19;20377;-68
2023/05/13 03:43:47;;;;;;;10.55;6.35;;;;;;;14.64;44.88;99768.84;7344358;19;20057;-74
2023/05/13 03:46:13;;;;;;;17.30;7.30;;;;;;;14.70;44.97;99768.28;7345177;19;20027;-74
2023/05/13 03:48:37;;;;;;;10.15;6.63;;;;;;;14.77;45.11;99774.84;7345060;19;20022;-73
2023/05/13 03:51:03;;;;;;;16.40;6.68;;;;;;;14.92;45.87;99772.66;7345496;19;20055;-74
2023/05/13 03:53:28;;;;;;;12.35;7.70;;;;;;;15.11;44.40;99770.06;7343129;19;20026;-75
2023/05/13 03:55:53;;;;;;;14.63;7.60;;;;;;;15.22;45.07;99769.97;7345156;19;20018;-75
2023/05/13 03:58:18;;;;;;;11.57;6.15;;;;;;;15.33;45.36;99770.84;7348467;19;20018;-75
2023/05/13 04:00:47;;;;;;;15.07;7.00;;;;;;;15.37;43.94;99767.75;7348286;19;20372;-65
2023/05/13 04:03:17;;;;;;;19.77;7.47;;;;;;;15.49;44.32;99777.38;7340571;19;20018;-71
2023/05/13 04:05:47;;;;;;;18.75;7.00;;;;;;;15.63;43.62;99768.13;7340478;19;20018;-72
2023/05/13 04:08:12;;;;;;;10.55;7.30;;;;;;;15.64;43.33;99769.81;7345144;19;20094;-73
2023/05/13 04:10:37;;;;;;;13.05;7.55;;;;;;;15.68;43.46;99765.03;7342509;19;20014;-73
2023/05/13 04:13:01;;;;;;;12.75;7.82;;;;;;;15.88;44.00;99772.13;7340993;19;20394;-73
2023/05/13 04:15:26;;;;;;;14.30;8.73;;;;;;;16.09;42.89;99761.22;7344834;19;20019;-76
2023/05/13 04:17:52;;;;;;;14.45;7.95;;;;;;;16.19;42.20;99757.53;7343000;19;20029;-72
2023/05/13 04:20:17;;;;;;;13.77;7.70;;;;;;;16.33;42.26;99761.66;7346872;19;20022;-66
2023/05/13 04:22:42;;;;;;;17.70;7.68;;;;;;;16.58;42.75;99762.88;7339929;19;20082;-68
2023/05/13 04:25:07;;;;;;;10.85;7.78;;;;;;;16.84;41.29;99757.72;7344421;19;20018;-67
2023/05/13 04:27:32;;;;;;;24.98;8.70;;;;;;;17.21;40.94;99757.72;7344961;19;20051;-66
2023/05/13 04:30:07;;;;;;;15.63;9.00;;;;;;;17.72;40.22;99755.31;7339215;19;20761;-68
2023/05/13 04:32:33;;;;;;;20.48;10.32;;;;;;;18.19;39.48;99763.22;7339219;19;20359;-67
2023/05/13 04:34:57;;;;;;;16.92;8.18;;;;;;;18.55;38.37;99753.22;7339365;19;20380;-67
2023/05/13 04:37:24;;;;;;;18.83;7.95;;;;;;;18.93;37.94;99762.78;7338383;19;20019;-68
2023/05/13 04:39:52;;;;;;;23.02;8.32;;;;;;;19.25;36.97;99761.25;7343004;19;20018;-66
2023/05/13 04:42:20;;;;;;;19.95;8.52;;;;;;;19.52;36.46;99759.22;7344310;19;20018;-67
2023/05/13 04:44:46;;;;;;;22.30;7.90;;;;;;;19.78;35.98;99761.81;7345898;19;20021;-69
2023/05/13 04:47:13;;;;;;;17.13;6.63;;;;;;;20.16;35.18;99764.91;7344726;19;20017;-67
2023/05/13 04:49:38;;;;;;;13.15;6.88;;;;;;;20.36;34.69;99766.31;7343632;19;20323;-65
2023/05/13 04:52:05;;;;;;;9.63;6.43;;;;;;;20.46;34.36;99764.28;7341929;19;20014;-67
2023/05/13 04:54:34;;;;;;;16.27;6.00;;;;;;;20.68;34.36;99760.03;7341185;19;20022;-67
2023/05/13 04:57:00;;;;;;;9.80;5.50;;;;;;;21.10;34.51;99764.34;7342295;19;20023;-68
2023/05/13 04:59:25;;;;;;;16.55;6.10;;;;;;;21.55;33.18;99761.00;7342337;19;20098;-69
2023/05/13 05:01:51;;;;;;;11.25;5.95;;;;;;;21.84;32.80;99761.16;7344857;19;20342;-67
2023/05/13 05:04:16;;;;;;;11.40;6.22;;;;;;;22.00;31.65;99758.38;7345121;19;20025;-67
2023/05/13 05:06:42;;;;;;;13.82;6.03;;;;;;;22.00;32.04;99763.81;7350388;19;20045;-69
2023/05/13 05:09:08;;;;;;;19.45;6.47;;;;;;;22.03;31.44;99762.59;7355391;19;20018;-66
2023/05/13 05:11:33;;;;;;;10.82;5.72;;;;;;;22.31;31.34;99754.75;7352635;19;20011;-66
2023/05/13 05:13:59;;;;;;;11.20;6.05;;;;;;;22.68;31.07;99753.91;7353633;19;20087;-66
2023/05/13 05:16:23;;;;;;;13.35;6.70;;;;;;;22.93;30.32;99757.25;7352519;19;20022;-66
2023/05/13 05:18:48;;;;;;;11.82;6.25;;;;;;;23.12;30.45;99760.28;7345279;19;20025;-68
2023/05/13 05:21:14;;;;;;;11.90;6.10;;;;;;;23.31;30.12;99764.28;7346842;19;20719;-67
2023/05/13 05:23:38;;;;;;;7.22;5.45;;;;;;;23.55;29.86;99768.63;7350674;19;20378;-67
2023/05/13 05:26:04;;;;;;;9.25;5.28;;;;;;;24.07;29.35;99771.13;7346228;19;20023;-69
2023/05/13 05:28:30;;;;;;;10.85;4.78;;;;;;;24.61;28.97;99762.44;7345086;19;20018;-69
2023/05/13 05:30:55;;;;;;;11.68;4.80;;;;;;;25.10;27.94;99761.56;7342632;19;20019;-67
2023/05/13 05:33:24;;;;;;;10.05;4.82;;;;;;;25.17;26.73;99765.19;7340270;19;20404;-67
2023/05/13 05:35:49;;;;;;;12.13;6.57;;;;;;;25.28;27.35;99757.25;7339894;19;20369;-67
2023/05/13 05:38:15;;;;;;;14.88;5.82;;;;;;;25.60;27.01;99758.50;7339182;19;20038;-74
2023/05/13 05:40:42;;;;;;;11.10;5.50;;;;;;;26.03;26.42;99759.06;7340592;19;20018;-68
2023/05/13 05:43:09;;;;;;;12.55;5.40;;;;;;;26.54;25.87;99754.94;7348116;19;20025;-73
2023/05/13 05:45:35;;;;;;;8.30;5.00;;;;;;;26.84;24.63;99756.22;7343796;19;20127;-73
2023/05/13 05:48:00;;;;;;;7.35;5.18;;;;;;;27.06;24.29;99746.75;7340504;19;20025;-73
2023/05/13 05:50:24;;;;;;;5.75;4.60;;;;;;;27.51;23.61;99757.78;7345687;19;20400;-73
2023/05/13 05:52:50;;;;;;;13.13;5.20;;;;;;;28.05;23.39;99748.28;7355458;19;20014;-73
2023/05/13 05:55:16;;;;;;;10.57;5.00;;;;;;;28.45;23.33;99755.19;7352151;19;20025;-72
2023/05/13 05:57:41;;;;;;;9.23;5.40;;;;;;;29.02;22.80;99755.97;7349662;19;20021;-76
2023/05/13 06:00:06;;;;;;;9.10;5.57;;;;;;;29.62;22.65;99750.69;7345862;19;20018;-74
2023/05/13 06:02:40;;;;;;;8.68;5.05;;;;;;;30.37;21.79;99756.63;7346937;19;20017;-72
2023/05/13 06:05:07;;;;;;;7.80;5.45;;;;;;;30.86;21.09;99758.19;7342524;19;20007;-73
2023/05/13 06:07:33;;;;;;;7.88;5.03;;;;;;;31.26;20.89;99755.59;7341023;19;20079;-74
2023/05/13 06:09:57;;;;;;;8.88;5.13;;;;;;;31.90;20.52;99753.66;7344179;19;20070;-72
2023/05/13 06:12:22;;;;;;;8.48;5.55;;;;;;;32.16;19.64;99759.66;7348986;19;20015;-72
2023/05/13 06:14:47;;;;;;;12.70;5.65;;;;;;;32.29;19.24;99757.44;7351496;19;20081;-73
2023/05/13 06:17:13;;;;;;;9.38;4.95;;;;;;;32.60;19.03;99756.06;7355600;19;20465;-73
2023/05/13 06:19:38;;;;;;;7.85;5.13;;;;;;;32.98;18.87;99757.22;7347182;19;20521;-72
2023/05/13 06:22:03;;;;;;;8.40;5.57;;;;;;;33.51;18.67;99748.38;7353528;19;20007;-73
2023/05/13 06:24:28;;;;;;;10.75;5.15;;;;;;;34.07;18.10;99752.66;7353624;19;20015;-75
2023/05/13 06:26:52;;;;;;;9.50;4.85;;;;;;;34.71;17.94;99761.03;7347725;19;20018;-73
2023/05/13 06:29:17;;;;;;;11.07;4.97;;;;;;;35.21;17.45;99757.00;7346027;19;20410;-72
2023/05/13 06:31:41;;;;;;;9.70;5.07;;;;;;;35.64;16.97;99767.78;7346235;19;20006;-72
2023/05/13 06:34:06;;;;;;;10.20;5.20;;;;;;;36.12;16.53;99754.63;7349680;19;20013;-72
2023/05/13 06:36:32;;;;;;;6.53;4.88;;;;;;;36.57;16.10;99758.63;7349201;19;20035;-72
2023/05/13 06:38:56;;;;;;;8.32;4.93;;;;;;;37.01;15.72;99753.34;7347914;19;20014;-71
2023/05/13 06:41:22;;;;;;;8.48;5.45;;;;;;;37.16;15.41;99758.91;7348968;19;20018;-73
2023/05/13 06:43:49;;;;;;;9.13;4.95;;;;;;;37.50;15.31;99745.16;7348247;19;20022;-72
2023/05/13 06:46:20;;;;;;;14.13;5.55;;;;;;;37.81;14.79;99745.94;7345486;19;20021;-72
2023/05/13 06:48:44;;;;;;;8.60;4.82;;;;;;;38.13;14.62;99746.31;7346080;19;20019;-73
2023/05/13 06:51:09;;;;;;;8.75;5.10;;;;;;;38.48;13.90;99744.41;7347093;19;20038;-73
2023/05/13 06:53:36;;;;;;;8.30;5.30;;;;;;;38.70;14.15;99743.97;7346448;19;20006;-73
2023/05/13 06:56:00;;;;;;;7.95;5.57;;;;;;;38.99;14.11;99741.22;7344661;19;20027;-67
2023/05/13 06:58:26;;;;;;;12.02;5.55;;;;;;;39.13;14.07;99740.22;7344228;19;20003;-70
2023/05/13 07:00:51;;;;;;;14.18;6.20;;;;;;;39.66;13.94;99748.56;7345852;19;20025;-74
2023/05/13 07:03:18;;;;;;;10.57;5.82;;;;;;;40.03;13.32;99826.00;7345800;19;20074;-72
2023/05/13 07:05:43;;;;;;;19.38;6.63;;;;;;;40.32;13.24;99839.88;7347046;19;20049;-72
2023/05/13 07:08:08;;;;;;;15.20;5.75;;;;;;;40.40;13.51;99786.13;7344860;19;20468;-72
2023/05/13 07:10:33;;;;;;;15.65;6.07;;;;;;;40.65;13.05;99810.03;7345303;19;20470;-73
2023/05/13 07:12:58;;;;;;;9.25;6.15;;;;;;;41.09;13.32;99747.22;7343806;19;20011;-75
2023/05/13 07:15:23;;;;;;;13.40;6.65;;;;;;;41.58;13.00;99736.22;7351113;19;20110;-74
2023/05/13 07:17:47;;;;;;;8.57;6.18;;;;;;;41.76;12.56;99835.25;7345052;19;20022;-73
2023/05/13 07:20:12;;;;;;;10.13;6.72;;;;;;;42.30;12.78;99749.47;7346344;19;20025;-78
2023/05/13 07:22:38;;;;;;;9.30;7.28;;;;;;;42.83;12.38;99740.34;7344968;19;20327;-78
2023/05/13 07:25:03;;;;;;;16.02;6.72;;;;;;;43.06;12.08;99739.16;7351153;19;20041;-75
2023/05/13 07:27:29;;;;;;;9.45;7.50;;;;;;;43.15;12.38;99736.38;7351683;19;20478;-71
2023/05/13 07:29:54;;;;;;;24.13;7.70;;;;;;;43.27;11.86;99729.06;7352215;19;20565;-75
2023/05/13 07:32:19;;;;;;;9.27;7.35;;;;;;;43.43;11.80;99732.25;7363220;19;20019;-75
2023/05/13 07:34:44;;;;;;;14.05;7.88;;;;;;;43.42;12.04;99736.22;7356920;19;20450;-75
2023/05/13 07:37:08;;;;;;;10.95;7.18;;;;;;;43.35;11.80;99731.06;7357821;19;20018;-75
2023/05/13 07:39:34;;;;;;;12.75;8.02;;;;;;;43.52;12.17;99740.69;7357256;19;20042;-76
2023/05/13 07:42:00;;;;;;;9.00;8.10;;;;;;;43.59;11.70;99738.25;7351127;19;20029;-74
2023/05/13 07:44:25;;;;;;;9.50;7.45;;;;;;;43.91;11.66;99726.59;7355583;19;20011;-74
2023/05/13 07:46:52;;;;;;;13.20;8.00;;;;;;;44.45;11.78;99735.63;7350759;19;20043;-75
2023/05/13 07:49:16;;;;;;;9.25;7.65;;;;;;;44.82;10.94;99734.91;7351886;19;20090;-75
2023/05/13 07:51:41;;;;;;;15.88;8.15;;;;;;;45.11;10.87;99736.16;7352222;19;20010;-70
2023/05/13 07:54:07;;;;;;;9.73;8.68;;;;;;;45.40;11.24;99727.78;7349236;19;20026;-69
2023/05/13 07:56:37;;;;;;;14.77;9.10;;;;;;;45.42;10.78;99725.44;7349501;19;20015;-70
2023/05/13 07:59:01;;;;;;;14.20;8.63;;;;;;;45.49;10.50;99731.34;7350168;19;20014;-70
2023/05/13 08:01:27;;;;;;;27.95;10.38;;;;;;;45.78;11.02;99724.09;7352018;19;20031;-70
2023/05/13 08:03:51;;;;;;;13.20;10.32;;;;;;;46.01;10.21;99735.91;7349491;19;20007;-69
2023/05/13 08:06:17;;;;;;;11.65;10.00;;;;;;;46.42;10.64;99732.28;7349959;19;20045;-70
2023/05/13 08:08:42;;;;;;;14.82;10.65;;;;;;;46.60;10.80;99736.59;7351906;19;20048;-69
2023/05/13 08:11:06;;;;;;;12.85;9.70;;;;;;;46.12;9.85;99729.53;7351652;19;20014;-70
2023/05/13 08:13:31;;;;;;;12.52;11.23;;;;;;;46.25;10.33;99734.06;7349804;19;20030;-70
2023/05/13 08:16:00;;;;;;;10.90;9.73;;;;;;;46.54;10.46;99735.97;7351983;19;20022;-70
2023/05/13 08:18:25;;;;;;;11.93;10.63;;;;;;;46.27;10.42;99736.56;7351085;19;20010;-70
2023/05/13 08:20:49;;;;;;;15.40;12.85;;;;;;;46.33;10.51;99720.25;7350740;19;20015;-70
2023/05/13 08:23:14;;;;;;;16.23;10.48;;;;;;;46.58;10.31;99736.94;7357844;19;20387;-73
2023/05/13 08:25:41;;;;;;;12.00;11.00;;;;;;;46.86;10.22;99722.22;7348896;19;20003;-73
2023/05/13 08:28:06;;;;;;;12.55;11.18;;;;;;;47.32;10.23;99724.66;7349461;19;20483;-70
2023/05/13 08:30:31;;;;;;;11.98;10.98;;;;;;;47.78;9.84;99711.28;7345738;19;20362;-72
2023/05/13 08:32:56;;;;;;;13.77;12.45;;;;;;;48.20;9.92;99810.75;7344380;19;20014;-70
2023/05/13 08:35:21;;;;;;;12.82;11.38;;;;;;;48.45;9.83;99813.53;7347108;19;20023;-68
2023/05/13 08:37:46;;;;;;;18.60;12.45;;;;;;;48.02;9.74;99776.25;7347610;19;20026;-69
2023/05/13 08:40:11;;;;;;;14.60;12.70;;;;;;;47.92;9.58;99815.50;7348332;19;20022;-69
2023/05/13 08:42:41;;;;;;;14.45;12.02;;;;;;;48.13;9.78;99816.19;7343579;19;20013;-69
2023/05/13 08:45:07;;;;;;;18.30;14.52;;;;;;;48.14;9.74;99789.56;7346999;19;20021;-69
2023/05/13 08:47:47;;;;;;;15.70;14.07;;;;;;;49.16;9.64;99761.84;7346231;19;20054;-68
2023/05/13 08:50:12;;;;;;;14.77;12.77;;;;;;;48.50;9.22;99779.34;7345948;19;20019;-69
2023/05/13 08:52:37;;;;;;;16.55;14.93;;;;;;;48.55;9.14;99754.44;7344990;19;20014;-69
2023/05/13 08:55:04;;;;;;;16.65;14.98;;;;;;;49.13;9.00;99776.69;7344593;19;20070;-69
2023/05/13 08:57:29;;;;;;;16.88;15.50;;;;;;;49.08;9.11;99772.97;7344541;19;20018;-70
2023/05/13 08:59:54;;;;;;;16.05;14.20;;;;;;;48.91;9.07;99767.63;7342946;19;20051;-68
2023/05/13 09:02:19;;;;;;;16.70;15.02;;;;;;;48.81;8.56;99765.31;7340898;19;20018;-74
2023/05/13 09:04:50;;;;;;;17.50;15.90;;;;;;;48.98;8.64;99736.69;7344022;19;20030;-74
2023/05/13 09:07:14;;;;;;;19.05;17.45;;;;;;;49.48;8.78;99760.63;7341995;19;20083;-73
2023/05/13 09:09:40;;;;;;;16.55;15.20;;;;;;;49.49;8.69;99775.63;7342227;19;20035;-74
2023/05/13 09:12:06;;;;;;;19.65;18.02;;;;;;;49.35;8.60;99781.75;7346133;19;20022;-75
2023/05/13 09:14:32;;;;;;;18.63;17.52;;;;;;;49.68;8.65;99731.19;7342548;19;20015;-75
2023/05/13 09:16:57;;;;;;;20.60;19.23;;;;;;;50.11;8.56;99737.91;7340880;19;20014;-74
2023/05/13 09:19:23;;;;;;;18.67;17.02;;;;;;;50.05;8.31;99743.03;7342021;19;20469;-71
2023/05/13 09:21:48;;;;;;;20.15;18.52;;;;;;;50.32;8.05;99768.75;7342854;19;20010;-69
2023/05/13 09:24:17;;;;;;;19.83;18.52;;;;;;;50.36;8.27;99753.44;7342341;19;20014;-69
2023/05/13 09:26:42;;;;;;;21.58;20.08;;;;;;;50.37;8.20;99738.06;7342136;19;20021;-70
2023/05/13 09:29:25;;;;;;;20.63;18.70;;;;;;;51.74;8.31;99749.56;7341898;19;20014;-72
2023/05/13 09:31:53;;;;;;;23.02;21.10;;;;;;;50.70;8.44;99711.16;7342129;19;20019;-70
2023/05/13 09:34:30;;;;;;;21.38;19.50;;;;;;;51.17;8.66;99714.50;7340647;19;20023;-70
2023/05/13 09:37:06;;;;;;;21.52;19.65;;;;;;;51.61;8.85;99738.78;7340570;19;20021;-70
2023/05/13 09:39:33;;;;;;;21.48;19.98;;;;;;;50.66;8.52;99727.31;7341621;19;20042;-70
2023/05/13 09:42:01;;;;;;;18.98;17.48;;;;;;;50.65;8.48;99728.53;7341870;19;20018;-70
2023/05/13 09:44:25;;;;;;;21.08;19.17;;;;;;;50.52;8.55;99721.34;7339085;19;20030;-70
2023/05/13 09:46:51;;;;;;;19.65;18.20;;;;;;;50.46;8.67;99710.28;7342340;19;20071;-70
2023/05/13 09:49:16;;;;;;;22.83;20.60;;;;;;;50.61;8.35;99691.53;7348853;19;20365;-69
2023/05/13 09:51:43;;;;;;;25.05;23.25;;;;;;;51.00;8.32;99709.34;7347074;19;20022;-68
2023/05/13 09:54:08;;;;;;;22.45;20.88;;;;;;;51.06;8.24;99712.66;7348938;19;20018;-70
2023/05/13 09:56:34;;;;;;;25.23;22.95;;;;;;;50.82;8.55;99713.81;7350049;19;20036;-68
2023/05/13 09:59:01;;;;;;;23.52;21.70;;;;;;;50.29;8.26;99696.56;7345596;19;20679;-68
2023/05/13 10:01:29;;;;;;;21.80;20.10;;;;;;;50.23;8.30;99719.94;7348467;19;20058;-69
2023/05/13 10:04:01;;;;;;;20.88;19.02;;;;;;;49.36;8.47;99712.56;7348382;19;20025;-69
2023/05/13 10:06:29;;;;;;;20.65;18.90;;;;;;;48.20;9.09;99702.50;7345797;19;20018;-68
2023/05/13 10:09:00;;;;;;;16.63;15.10;;;;;;;47.06;9.57;99635.84;7345817;19;20007;-68
2023/05/13 10:11:26;;;;;;;13.77;12.77;;;;;;;45.40;9.80;99634.84;7348286;19;20014;-75
2023/05/13 10:14:04;;;;;;;12.52;11.52;;;;;;;45.34;10.31;99644.66;7344732;19;20248;-69
2023/05/13 10:16:31;;;;;;;12.30;10.90;;;;;;;44.50;10.21;99648.25;7351793;19;20018;-68
2023/05/13 10:18:57;;;;;;;11.27;10.35;;;;;;;45.09;9.71;99639.97;7347028;19;20665;-68
2023/05/13 10:21:23;;;;;;;10.95;10.05;;;;;;;45.62;9.67;99641.34;7347041;19;20013;-67
2023/05/13 10:23:52;;;;;;;9.80;9.10;;;;;;;44.34;10.24;99645.16;7347078;19;20014;-72
2023/05/13 10:26:20;;;;;;;8.88;7.85;;;;;;;41.87;10.89;99631.44;7352110;19;20686;-72
2023/05/13 10:28:47;;;;;;;7.53;6.80;;;;;;;39.44;12.60;99617.97;7352871;19;20022;-72
2023/05/13 10:31:11;;;;;;;10.15;6.50;;;;;;;37.45;13.53;99614.47;7353352;19;20033;-69
2023/05/13 10:33:37;;;;;;;9.05;6.05;;;;;;;35.72;14.33;99613.84;7355445;19;20014;-70
2023/05/13 10:36:41;;;;;;;9.63;5.18;;;;;;;34.80;14.35;99618.19;7348566;19;20025;-65
2023/05/13 10:39:40;;;;;;;7.43;4.93;;;;;;;32.69;16.28;99602.72;7350635;19;20018;-67
2023/05/13 10:42:35;;;;;;;8.07;5.47;;;;;;;31.96;17.26;99595.47;7343123;19;20022;-68
2023/05/13 10:45:00;;;;;;;7.07;4.95;;;;;;;30.62;17.88;99605.97;7347074;19;20125;-68
2023/05/13 10:47:26;;;;;;;8.00;5.97;;;;;;;29.87;18.31;99597.50;7347775;19;20015;-67
2023/05/13 10:49:54;;;;;;;9.23;5.03;;;;;;;29.32;18.90;99610.53;7348491;19;20031;-67
2023/05/13 10:52:20;;;;;;;9.55;5.28;;;;;;;28.84;19.65;99616.00;7342495;19;20129;-71
2023/05/13 10:55:02;;;;;;;14.85;4.38;;;;;;;28.74;18.92;99610.19;7342564;19;20021;-72
2023/05/13 10:57:36;;;;;;;7.78;4.68;;;;;;;28.11;19.69;99615.81;7342070;19;20106;-72
2023/05/13 11:00:18;;;;;;;9.70;4.70;;;;;;;27.90;19.97;99614.28;7343654;19;20002;-71
2023/05/13 11:02:44;;;;;;;10.18;5.25;;;;;;;27.22;21.28;99611.31;7343328;19;20018;-72
2023/05/13 11:05:18;;;;;;;7.82;4.50;;;;;;;26.96;20.84;99617.75;7342485;19;20035;-72
2023/05/13 11:07:56;;;;;;;9.65;5.28;;;;;;;26.87;21.22;99612.69;7344481;19;20414;-70
2023/05/13 11:10:30;;;;;;;7.90;4.82;;;;;;;26.61;22.08;99619.94;7343589;19;20018;-71
2023/05/13 11:13:21;;;;;;;9.63;3.95;;;;;;;26.47;21.56;99621.00;7346677;19;20105;-73
2023/05/13 11:15:54;;;;;;;12.32;4.38;;;;;;;26.03;22.17;99622.47;7344138;19;20412;-71
2023/05/13 11:18:29;;;;;;;8.90;4.07;;;;;;;25.75;22.81;99618.22;7346504;19;20014;-70
2023/05/13 11:20:55;;;;;;;15.10;4.60;;;;;;;25.30;23.38;99594.16;7348386;19;20014;-73
2023/05/13 11:23:21;;;;;;;7.38;4.18;;;;;;;25.18;23.27;99611.31;7347686;19;20044;-69
2023/05/13 11:25:46;;;;;;;11.65;4.60;;;;;;;24.98;23.22;99600.34;7347457;19;20022;-69
2023/05/13 11:28:17;;;;;;;6.97;4.22;;;;;;;24.96;23.92;99602.44;7343093;19;20033;-70